Time;durP1;ratioP1;P1;durP2;ratioP2;P2;SDS_P1;SDS_P2;PMS_P1;PMS_P2;Temp;Humidity;BMP_temperature;BMP_pressure;BME280_temperature;BME280_humidity;BME280_pressure;Samples;Min_cycle;Max_cycle;Signal;HPM_P1;HPM_P2
2023/04/10 00:01:38;;;;;;;0.90;0.65;;;;;;;;;;4951287;28;20522;-78
2023/04/10 00:04:07;;;;;;;0.40;0.40;;;;;;;;;;5001759;28;20046;-78
2023/04/10 00:06:33;;;;;;;1.20;1.10;;;;;;;;;;5004803;28;20054;-78
2023/04/10 00:08:59;;;;;;;1.20;1.00;;;;;;;;;;4962700;28;20446;-79
2023/04/10 00:11:26;;;;;;;0.45;0.45;;;;;;;;;;4976466;28;20497;-80
2023/04/10 00:13:52;;;;;;;1.25;1.15;;;;;;;;;;4961823;28;20034;-79
2023/04/10 00:16:18;;;;;;;0.50;0.50;;;;;;;;;;4976575;28;20062;-79
2023/04/10 00:18:44;;;;;;;0.98;0.32;;;;;;;;;;5008601;28;20042;-79
2023/04/10 00:21:11;;;;;;;1.15;0.98;;;;;;;;;;4964445;28;20117;-78
2023/04/10 00:23:37;;;;;;;0.47;0.47;;;;;;;;;;4979194;28;20118;-79
2023/04/10 00:26:03;;;;;;;0.70;0.70;;;;;;;;;;5012982;28;20154;-78
2023/04/10 00:28:30;;;;;;;1.35;0.90;;;;;;;;;;4975115;28;20082;-78
2023/04/10 00:30:56;;;;;;;0.63;0.55;;;;;;;;;;4995583;28;20070;-78
2023/04/10 00:33:22;;;;;;;1.58;1.10;;;;;;;;;;5000875;28;20042;-79
2023/04/10 00:35:47;;;;;;;0.25;0.25;;;;;;;;;;4977819;28;20041;-79
2023/04/10 00:38:14;;;;;;;0.45;0.30;;;;;;;;;;4965038;28;20085;-79
2023/04/10 00:40:40;;;;;;;0.30;0.30;;;;;;;;;;4999735;28;20077;-80
2023/04/10 00:43:06;;;;;;;2.50;1.17;;;;;;;;;;5009285;28;20046;-79
2023/04/10 00:45:32;;;;;;;4.15;0.65;;;;;;;;;;4985182;28;20053;-79
2023/04/10 00:48:01;;;;;;;0.38;0.38;;;;;;;;;;4996055;28;20043;-79
2023/04/10 00:50:27;;;;;;;0.20;0.20;;;;;;;;;;5001506;28;20056;-79
2023/04/10 00:52:53;;;;;;;0.70;0.68;;;;;;;;;;4982092;28;20506;-79
2023/04/10 00:55:19;;;;;;;0.43;0.43;;;;;;;;;;5017161;28;20045;-79
2023/04/10 00:57:46;;;;;;;0.20;0.20;;;;;;;;;;4969147;28;20049;-79
2023/04/10 01:00:13;;;;;;;0.52;0.52;;;;;;;;;;4978305;28;20038;-79
2023/04/10 01:02:39;;;;;;;0.40;0.28;;;;;;;;;;4965969;28;20097;-80
2023/04/10 01:05:06;;;;;;;0.70;0.63;;;;;;;;;;4970856;28;20069;-79
2023/04/10 01:07:38;;;;;;;0.47;0.47;;;;;;;;;;4982715;28;20102;-79
2023/04/10 01:10:14;;;;;;;0.45;0.45;;;;;;;;;;4964881;28;20502;-79
2023/04/10 01:12:51;;;;;;;0.65;0.65;;;;;;;;;;4975893;28;20072;-80
2023/04/10 01:15:19;;;;;;;0.88;0.88;;;;;;;;;;4995981;28;20042;-79
2023/04/10 01:17:50;;;;;;;0.45;0.45;;;;;;;;;;4985609;28;20321;-79
2023/04/10 01:20:20;;;;;;;0.57;0.47;;;;;;;;;;4976269;28;20050;-79
2023/04/10 01:22:49;;;;;;;0.82;0.60;;;;;;;;;;5012489;28;20066;-79
2023/04/10 01:25:35;;;;;;;1.77;1.08;;;;;;;;;;5011590;28;20027;-79
2023/04/10 01:28:04;;;;;;;1.85;0.93;;;;;;;;;;4979421;28;20121;-80
2023/04/10 01:30:31;;;;;;;0.50;0.43;;;;;;;;;;5011376;28;20038;-78
2023/04/10 01:32:59;;;;;;;0.60;0.60;;;;;;;;;;4991154;28;20097;-79
2023/04/10 01:35:26;;;;;;;0.82;0.82;;;;;;;;;;4965222;28;20565;-79
2023/04/10 01:37:52;;;;;;;0.35;0.35;;;;;;;;;;5011596;28;20058;-79
2023/04/10 01:40:19;;;;;;;0.63;0.63;;;;;;;;;;4985159;28;20537;-79
2023/04/10 01:42:52;;;;;;;0.73;0.73;;;;;;;;;;5005788;28;21643;-78
2023/04/10 01:45:24;;;;;;;0.75;0.73;;;;;;;;;;4988332;28;20042;-80
2023/04/10 01:47:50;;;;;;;0.85;0.85;;;;;;;;;;5010450;28;20040;-82
2023/04/10 01:50:16;;;;;;;2.38;1.83;;;;;;;;;;4996670;28;20537;-78
2023/04/10 01:52:43;;;;;;;0.98;0.73;;;;;;;;;;4961908;28;20084;-78
2023/04/10 01:55:09;;;;;;;0.55;0.55;;;;;;;;;;4989481;28;20041;-79
2023/04/10 01:57:35;;;;;;;1.52;0.90;;;;;;;;;;4973487;28;20042;-79
2023/04/10 02:00:05;;;;;;;0.38;0.38;;;;;;;;;;5002996;28;20050;-78
2023/04/10 02:02:31;;;;;;;1.38;0.85;;;;;;;;;;4958091;28;20042;-79
2023/04/10 02:04:57;;;;;;;0.57;0.50;;;;;;;;;;4962166;28;20129;-79
2023/04/10 02:07:27;;;;;;;0.65;0.60;;;;;;;;;;4975248;28;20181;-79
2023/04/10 02:10:13;;;;;;;1.13;1.02;;;;;;;;;;4988191;28;20100;-79
2023/04/10 02:12:45;;;;;;;1.10;1.00;;;;;;;;;;4977551;28;20426;-78
2023/04/10 02:15:11;;;;;;;0.77;0.65;;;;;;;;;;5008481;28;20668;-79
2023/04/10 02:17:38;;;;;;;0.57;0.50;;;;;;;;;;4976748;28;20043;-78
2023/04/10 02:20:06;;;;;;;0.30;0.30;;;;;;;;;;4959278;28;20047;-80
2023/04/10 02:22:32;;;;;;;1.52;1.42;;;;;;;;;;5010743;28;20046;-79
2023/04/10 02:24:59;;;;;;;0.43;0.43;;;;;;;;;;5010078;28;20046;-80
2023/04/10 02:27:29;;;;;;;1.60;0.90;;;;;;;;;;5007733;28;20049;-79
2023/04/10 02:29:55;;;;;;;1.45;1.23;;;;;;;;;;5005909;28;20108;-79
2023/04/10 02:32:21;;;;;;;0.68;0.68;;;;;;;;;;4988814;28;20185;-79
2023/04/10 02:34:47;;;;;;;0.82;0.60;;;;;;;;;;5008968;28;20354;-79
2023/04/10 02:37:13;;;;;;;1.60;1.25;;;;;;;;;;4989371;28;20043;-79
2023/04/10 02:39:40;;;;;;;0.77;0.77;;;;;;;;;;4959073;28;20054;-79
2023/04/10 02:42:06;;;;;;;1.27;1.05;;;;;;;;;;5004756;28;20050;-79
2023/04/10 02:44:32;;;;;;;0.65;0.65;;;;;;;;;;4974625;28;20042;-80
2023/04/10 02:46:58;;;;;;;1.27;0.70;;;;;;;;;;5006661;28;20058;-79
2023/04/10 02:49:24;;;;;;;1.65;1.20;;;;;;;;;;5004152;28;20070;-79
2023/04/10 02:51:50;;;;;;;0.57;0.57;;;;;;;;;;4955376;28;20053;-79
2023/04/10 02:54:16;;;;;;;0.40;0.40;;;;;;;;;;4971253;28;20042;-79
2023/04/10 02:56:42;;;;;;;0.45;0.45;;;;;;;;;;5010270;28;20045;-79
2023/04/10 02:59:08;;;;;;;0.50;0.40;;;;;;;;;;4983301;28;20568;-79
2023/04/10 03:01:34;;;;;;;1.17;0.77;;;;;;;;;;5013096;28;20041;-79
2023/04/10 03:04:02;;;;;;;1.10;0.85;;;;;;;;;;5012327;28;20046;-80
2023/04/10 03:06:28;;;;;;;0.55;0.55;;;;;;;;;;5002017;28;20042;-79
2023/04/10 03:08:55;;;;;;;0.52;0.52;;;;;;;;;;5011135;28;20042;-79
2023/04/10 03:11:21;;;;;;;0.93;0.93;;;;;;;;;;4991777;28;20177;-79
2023/04/10 03:13:47;;;;;;;2.05;1.00;;;;;;;;;;4968150;28;20458;-79
2023/04/10 03:16:14;;;;;;;3.60;0.68;;;;;;;;;;4986915;28;20077;-80
2023/04/10 03:18:40;;;;;;;0.38;0.30;;;;;;;;;;5008344;28;20201;-79
2023/04/10 03:21:07;;;;;;;0.45;0.45;;;;;;;;;;4995009;28;20322;-79
2023/04/10 03:23:33;;;;;;;0.40;0.40;;;;;;;;;;5009899;28;20045;-80
2023/04/10 03:25:59;;;;;;;0.77;0.77;;;;;;;;;;5013245;28;20050;-79
2023/04/10 03:28:26;;;;;;;0.30;0.30;;;;;;;;;;4996456;28;20034;-79
2023/04/10 03:30:52;;;;;;;1.65;1.05;;;;;;;;;;4981258;28;20042;-79
2023/04/10 03:33:18;;;;;;;0.38;0.30;;;;;;;;;;4969960;28;20097;-79
2023/04/10 03:35:47;;;;;;;1.95;1.13;;;;;;;;;;4980986;28;20047;-79
2023/04/10 03:38:13;;;;;;;1.35;0.45;;;;;;;;;;4999432;28;20669;-79
2023/04/10 03:40:39;;;;;;;0.30;0.20;;;;;;;;;;5000433;28;20077;-79
2023/04/10 03:43:05;;;;;;;0.80;0.80;;;;;;;;;;4980630;28;20523;-79
2023/04/10 03:45:32;;;;;;;0.40;0.40;;;;;;;;;;4978853;28;20129;-79
2023/04/10 03:47:58;;;;;;;0.43;0.40;;;;;;;;;;4977133;28;20097;-79
2023/04/10 03:50:24;;;;;;;0.55;0.47;;;;;;;;;;5012918;28;20455;-79
2023/04/10 03:52:51;;;;;;;2.10;1.60;;;;;;;;;;4992680;28;20049;-79
2023/04/10 03:55:20;;;;;;;0.30;0.30;;;;;;;;;;5010378;28;20038;-79
2023/04/10 03:57:46;;;;;;;0.63;0.63;;;;;;;;;;4979261;28;20038;-79
2023/04/10 04:00:13;;;;;;;1.05;0.95;;;;;;;;;;4994266;28;20532;-79
2023/04/10 04:02:39;;;;;;;6.65;0.63;;;;;;;;;;4974869;28;20046;-79
2023/04/10 04:05:05;;;;;;;2.13;1.83;;;;;;;;;;4964214;28;20054;-79
2023/04/10 04:07:31;;;;;;;1.55;0.73;;;;;;;;;;5008914;28;20523;-80
2023/04/10 04:09:57;;;;;;;0.75;0.60;;;;;;;;;;4992815;28;20520;-80
2023/04/10 04:12:23;;;;;;;1.17;0.63;;;;;;;;;;4994605;28;20274;-79
2023/04/10 04:14:49;;;;;;;0.80;0.80;;;;;;;;;;4984550;28;20420;-79
2023/04/10 04:17:15;;;;;;;0.35;0.35;;;;;;;;;;4994869;28;20047;-79
2023/04/10 04:19:41;;;;;;;0.45;0.32;;;;;;;;;;5010411;28;20042;-79
2023/04/10 04:22:07;;;;;;;0.47;0.47;;;;;;;;;;4980346;28;20528;-79
2023/04/10 04:24:33;;;;;;;0.82;0.73;;;;;;;;;;4968696;28;20034;-79
2023/04/10 04:27:00;;;;;;;0.57;0.57;;;;;;;;;;5008361;28;20069;-79
2023/04/10 04:29:26;;;;;;;0.30;0.20;;;;;;;;;;4964657;28;20093;-79
2023/04/10 04:31:52;;;;;;;1.77;0.73;;;;;;;;;;4979389;28;20042;-79
2023/04/10 04:34:18;;;;;;;0.43;0.25;;;;;;;;;;4998136;28;20038;-80
2023/04/10 04:36:44;;;;;;;3.72;1.25;;;;;;;;;;5014210;28;20525;-79
2023/04/10 04:39:10;;;;;;;2.28;0.60;;;;;;;;;;4966014;28;20087;-79
2023/04/10 04:41:36;;;;;;;0.45;0.45;;;;;;;;;;5005017;28;20434;-81
2023/04/10 04:44:02;;;;;;;0.93;0.93;;;;;;;;;;5007899;28;20451;-80
2023/04/10 04:46:28;;;;;;;0.88;0.73;;;;;;;;;;4978289;28;20042;-79
2023/04/10 04:48:55;;;;;;;1.08;0.73;;;;;;;;;;5013530;28;20039;-79
2023/04/10 04:51:21;;;;;;;2.35;2.15;;;;;;;;;;4961878;28;20168;-79
2023/04/10 04:53:47;;;;;;;1.65;1.00;;;;;;;;;;4964946;28;20042;-79
2023/04/10 04:56:13;;;;;;;1.17;0.73;;;;;;;;;;4963437;28;20044;-80
2023/04/10 04:58:39;;;;;;;2.72;0.90;;;;;;;;;;5006839;28;20193;-79
2023/04/10 05:01:05;;;;;;;0.55;0.52;;;;;;;;;;4960011;28;20234;-79
2023/04/10 05:03:31;;;;;;;0.65;0.63;;;;;;;;;;4963133;28;20439;-79
2023/04/10 05:05:57;;;;;;;0.52;0.52;;;;;;;;;;4994597;28;20057;-79
2023/04/10 05:08:23;;;;;;;2.50;1.23;;;;;;;;;;4960599;28;20069;-79
2023/04/10 05:10:49;;;;;;;0.50;0.50;;;;;;;;;;4962732;28;20507;-79
2023/04/10 05:13:16;;;;;;;0.73;0.57;;;;;;;;;;4981456;23;20046;-78
2023/04/10 05:15:43;;;;;;;1.95;1.70;;;;;;;;;;4969843;28;20034;-78
2023/04/10 05:18:09;;;;;;;0.35;0.35;;;;;;;;;;4984761;28;20049;-78
2023/04/10 05:20:35;;;;;;;4.13;2.33;;;;;;;;;;4989939;28;20038;-78
2023/04/10 05:23:02;;;;;;;1.85;0.65;;;;;;;;;;4969158;28;20052;-78
2023/04/10 05:25:28;;;;;;;5.55;1.58;;;;;;;;;;4955109;28;20117;-78
2023/04/10 05:27:54;;;;;;;1.33;1.17;;;;;;;;;;4960537;28;20125;-78
2023/04/10 05:30:20;;;;;;;0.52;0.52;;;;;;;;;;4972154;28;20046;-77
2023/04/10 05:32:46;;;;;;;1.75;0.68;;;;;;;;;;4971219;28;20031;-78
2023/04/10 05:35:12;;;;;;;0.30;0.30;;;;;;;;;;4973287;28;20317;-79
2023/04/10 05:37:39;;;;;;;0.93;0.93;;;;;;;;;;4954967;28;20054;-78
2023/04/10 05:40:05;;;;;;;1.27;0.80;;;;;;;;;;4971122;28;20129;-78
2023/04/10 05:42:31;;;;;;;0.60;0.60;;;;;;;;;;4955890;28;20503;-78
2023/04/10 05:44:57;;;;;;;1.40;0.68;;;;;;;;;;4956309;28;20077;-77
2023/04/10 05:47:23;;;;;;;1.38;1.27;;;;;;;;;;4955276;28;20133;-77
2023/04/10 05:49:49;;;;;;;0.52;0.52;;;;;;;;;;4972899;28;20153;-76
2023/04/10 05:52:15;;;;;;;0.65;0.60;;;;;;;;;;4970865;28;20049;-77
2023/04/10 05:54:41;;;;;;;0.50;0.50;;;;;;;;;;4968973;28;20042;-78
2023/04/10 05:57:07;;;;;;;1.60;0.82;;;;;;;;;;4952458;28;20153;-77
2023/04/10 05:59:33;;;;;;;0.20;0.10;;;;;;;;;;4969331;28;20047;-77
2023/04/10 06:01:59;;;;;;;0.57;0.50;;;;;;;;;;4950830;28;20050;-77
2023/04/10 06:04:25;;;;;;;1.10;0.90;;;;;;;;;;4969481;28;20030;-78
2023/04/10 06:06:51;;;;;;;0.30;0.20;;;;;;;;;;4973851;28;20034;-78
2023/04/10 06:09:17;;;;;;;2.80;1.15;;;;;;;;;;4970490;28;20060;-77
2023/04/10 06:11:43;;;;;;;0.75;0.47;;;;;;;;;;4969698;28;20810;-77
2023/04/10 06:14:09;;;;;;;0.20;0.10;;;;;;;;;;4970619;28;20057;-76
2023/04/10 06:16:35;;;;;;;0.52;0.45;;;;;;;;;;4971918;28;20064;-78
2023/04/10 06:19:01;;;;;;;0.63;0.47;;;;;;;;;;4974538;28;20066;-78
2023/04/10 06:21:27;;;;;;;0.40;0.40;;;;;;;;;;4975887;28;20833;-75
2023/04/10 06:23:53;;;;;;;0.28;0.28;;;;;;;;;;4971044;28;20045;-77
2023/04/10 06:26:20;;;;;;;1.83;1.33;;;;;;;;;;4970991;28;20185;-77
2023/04/10 06:28:46;;;;;;;0.47;0.47;;;;;;;;;;4957889;28;20133;-77
2023/04/10 06:31:12;;;;;;;1.92;1.10;;;;;;;;;;4965403;28;20038;-76
2023/04/10 06:33:38;;;;;;;0.85;0.63;;;;;;;;;;4959270;28;20034;-77
2023/04/10 06:36:05;;;;;;;0.93;0.77;;;;;;;;;;4972651;28;20042;-77
2023/04/10 06:38:32;;;;;;;1.02;0.93;;;;;;;;;;4969227;28;20605;-77
2023/04/10 06:40:59;;;;;;;1.40;0.68;;;;;;;;;;4966532;28;20097;-77
2023/04/10 06:43:26;;;;;;;1.02;0.68;;;;;;;;;;4967579;28;20072;-77
2023/04/10 06:45:52;;;;;;;0.20;0.17;;;;;;;;;;4951019;28;20046;-77
2023/04/10 06:48:18;;;;;;;0.55;0.43;;;;;;;;;;4989870;28;20128;-77
2023/04/10 06:50:44;;;;;;;1.30;0.65;;;;;;;;;;4970884;28;20049;-77
2023/04/10 06:53:10;;;;;;;0.93;0.73;;;;;;;;;;4961649;28;20038;-76
2023/04/10 06:55:37;;;;;;;0.93;0.73;;;;;;;;;;4972984;28;20109;-77
2023/04/10 06:58:03;;;;;;;0.77;0.75;;;;;;;;;;4952598;28;20826;-76
2023/04/10 07:00:30;;;;;;;1.35;1.05;;;;;;;;;;4974125;28;20046;-77
2023/04/10 07:02:56;;;;;;;1.27;1.17;;;;;;;;;;4966766;28;20053;-77
2023/04/10 07:05:22;;;;;;;0.65;0.65;;;;;;;;;;4967138;28;20604;-77
2023/04/10 07:07:49;;;;;;;0.38;0.38;;;;;;;;;;4971310;28;20355;-77
2023/04/10 07:10:16;;;;;;;0.85;0.60;;;;;;;;;;4975525;28;20388;-77
2023/04/10 07:12:42;;;;;;;0.55;0.55;;;;;;;;;;4973090;28;20070;-77
2023/04/10 07:15:08;;;;;;;3.65;0.63;;;;;;;;;;4976933;28;20411;-77
2023/04/10 07:17:35;;;;;;;0.73;0.60;;;;;;;;;;4968468;28;20042;-77
2023/04/10 07:20:01;;;;;;;0.20;0.10;;;;;;;;;;4970296;28;20038;-76
2023/04/10 07:22:27;;;;;;;0.20;0.20;;;;;;;;;;4957975;28;20105;-75
2023/04/10 07:24:53;;;;;;;0.82;0.82;;;;;;;;;;4973432;28;20046;-77
2023/04/10 07:27:19;;;;;;;1.52;1.17;;;;;;;;;;4953567;28;20120;-77
2023/04/10 07:29:45;;;;;;;0.50;0.50;;;;;;;;;;4952721;28;20125;-77
2023/04/10 07:32:11;;;;;;;0.65;0.65;;;;;;;;;;4962460;28;20046;-77
2023/04/10 07:34:37;;;;;;;0.50;0.38;;;;;;;;;;4958562;28;20049;-74
2023/04/10 07:37:04;;;;;;;0.82;0.65;;;;;;;;;;4951763;28;20090;-77
2023/04/10 07:39:30;;;;;;;0.50;0.50;;;;;;;;;;4971291;28;20133;-76
2023/04/10 07:41:56;;;;;;;1.65;0.90;;;;;;;;;;4964886;28;20043;-75
2023/04/10 07:44:22;;;;;;;0.55;0.55;;;;;;;;;;4966465;28;20042;-77
2023/04/10 07:46:48;;;;;;;0.95;0.77;;;;;;;;;;4967183;28;20051;-76
2023/04/10 07:49:14;;;;;;;0.85;0.68;;;;;;;;;;4966905;28;20101;-75
2023/04/10 07:51:40;;;;;;;0.70;0.70;;;;;;;;;;4965139;28;20046;-76
2023/04/10 07:54:06;;;;;;;0.20;0.20;;;;;;;;;;4968099;28;20039;-77
2023/04/10 07:56:32;;;;;;;0.75;0.73;;;;;;;;;;4964802;28;20040;-77
2023/04/10 07:59:02;;;;;;;0.25;0.25;;;;;;;;;;4969206;28;20094;-77
2023/04/10 08:01:28;;;;;;;0.75;0.43;;;;;;;;;;4957345;28;20482;-76
2023/04/10 08:03:57;;;;;;;0.20;0.20;;;;;;;;;;4961041;28;20534;-77
2023/04/10 08:06:23;;;;;;;0.52;0.52;;;;;;;;;;4965358;28;21166;-77
2023/04/10 08:08:51;;;;;;;0.40;0.40;;;;;;;;;;4965526;28;20847;-77
2023/04/10 08:11:24;;;;;;;0.80;0.55;;;;;;;;;;4969855;28;20388;-77
2023/04/10 08:13:51;;;;;;;0.52;0.52;;;;;;;;;;4959732;28;20050;-76
2023/04/10 08:16:18;;;;;;;1.33;0.73;;;;;;;;;;4963979;28;20117;-76
2023/04/10 08:18:44;;;;;;;0.25;0.17;;;;;;;;;;4962794;28;20100;-77
2023/04/10 08:21:10;;;;;;;0.82;0.65;;;;;;;;;;4946202;28;20133;-77
2023/04/10 08:23:36;;;;;;;0.77;0.25;;;;;;;;;;4956686;28;20084;-77
2023/04/10 08:26:02;;;;;;;1.45;1.35;;;;;;;;;;4964456;28;20050;-80
2023/04/10 08:28:28;;;;;;;0.73;0.63;;;;;;;;;;4965081;28;20043;-76
2023/04/10 08:30:54;;;;;;;0.75;0.30;;;;;;;;;;4971799;28;20042;-79
2023/04/10 08:33:20;;;;;;;0.20;0.20;;;;;;;;;;4959114;28;20065;-79
2023/04/10 08:35:50;;;;;;;0.47;0.47;;;;;;;;;;4971279;28;20221;-80
2023/04/10 08:38:16;;;;;;;2.47;1.83;;;;;;;;;;4968720;28;20395;-78
2023/04/10 08:40:43;;;;;;;0.20;0.10;;;;;;;;;;4956472;28;20045;-78
2023/04/10 08:43:09;;;;;;;0.32;0.32;;;;;;;;;;4977684;28;20569;-81
2023/04/10 08:45:35;;;;;;;1.10;0.80;;;;;;;;;;4971983;28;20121;-80
2023/04/10 08:48:02;;;;;;;0.88;0.45;;;;;;;;;;4966381;28;21384;-78
2023/04/10 08:50:30;;;;;;;0.43;0.40;;;;;;;;;;4963001;28;20046;-78
2023/04/10 08:52:59;;;;;;;0.55;0.55;;;;;;;;;;4950768;28;20042;-77
2023/04/10 08:55:26;;;;;;;0.63;0.43;;;;;;;;;;4955061;28;20476;-77
2023/04/10 08:57:52;;;;;;;0.57;0.57;;;;;;;;;;4964275;28;20077;-80
2023/04/10 09:00:18;;;;;;;0.30;0.20;;;;;;;;;;4948867;28;20125;-80
2023/04/10 09:02:44;;;;;;;0.77;0.20;;;;;;;;;;4948152;28;20046;-78
2023/04/10 09:05:12;;;;;;;1.70;0.80;;;;;;;;;;4967643;28;20420;-78
2023/04/10 09:07:38;;;;;;;0.20;0.10;;;;;;;;;;4968687;28;20046;-81
2023/04/10 09:10:05;;;;;;;0.20;0.20;;;;;;;;;;4946666;28;20073;-78
2023/04/10 09:12:42;;;;;;;1.42;0.55;;;;;;;;;;4966131;28;20129;-79
2023/04/10 09:15:08;;;;;;;0.43;0.43;;;;;;;;;;4958671;28;20034;-81
2023/04/10 09:17:34;;;;;;;0.65;0.25;;;;;;;;;;4964541;28;20042;-81
2023/04/10 09:20:00;;;;;;;1.83;1.00;;;;;;;;;;4965756;28;20128;-79
2023/04/10 09:22:33;;;;;;;0.30;0.30;;;;;;;;;;4969257;28;20034;-79
2023/04/10 09:25:00;;;;;;;0.20;0.17;;;;;;;;;;4965329;28;20073;-79
2023/04/10 09:27:34;;;;;;;0.75;0.43;;;;;;;;;;4963163;28;20407;-80
2023/04/10 09:30:00;;;;;;;1.38;1.27;;;;;;;;;;4963175;28;20052;-79
2023/04/10 09:32:43;;;;;;;0.60;0.60;;;;;;;;;;4965342;28;20085;-77
2023/04/10 09:35:09;;;;;;;;;;;;;;;;;;4955396;28;20038;-77
2023/04/10 09:37:36;;;;;;;0.77;0.32;;;;;;;;;;4965811;28;19922;-80
2023/04/10 09:40:02;;;;;;;1.05;0.75;;;;;;;;;;4946747;28;20511;-78
2023/04/10 09:42:36;;;;;;;0.20;0.10;;;;;;;;;;4960429;28;20458;-79
2023/04/10 09:45:02;;;;;;;0.43;0.43;;;;;;;;;;4962900;28;20362;-77
2023/04/10 09:47:28;;;;;;;0.20;0.20;;;;;;;;;;4949978;28;20889;-79
2023/04/10 09:49:55;;;;;;;0.20;0.10;;;;;;;;;;4952997;28;20924;-77
2023/04/10 09:52:27;;;;;;;0.30;0.30;;;;;;;;;;4955073;28;20710;-77
2023/04/10 09:54:53;;;;;;;0.35;0.28;;;;;;;;;;4963534;28;20603;-79
2023/04/10 09:57:20;;;;;;;0.63;0.63;;;;;;;;;;4965258;28;20180;-78
2023/04/10 09:59:50;;;;;;;0.80;0.80;;;;;;;;;;4965921;28;20053;-80
2023/04/10 10:02:20;;;;;;;0.20;0.20;;;;;;;;;;4953905;28;20092;-78
2023/04/10 10:04:47;;;;;;;0.68;0.60;;;;;;;;;;4965856;28;20097;-81
2023/04/10 10:07:14;;;;;;;0.73;0.73;;;;;;;;;;4956197;28;20466;-81
2023/04/10 10:09:44;;;;;;;0.68;0.57;;;;;;;;;;4954414;28;20074;-80
2023/04/10 10:12:11;;;;;;;0.25;0.25;;;;;;;;;;4964720;28;20065;-81
2023/04/10 10:14:56;;;;;;;1.40;1.00;;;;;;;;;;4965982;28;20046;-78
2023/04/10 10:17:24;;;;;;;0.75;0.22;;;;;;;;;;4969462;28;20506;-81
2023/04/10 10:19:56;;;;;;;0.43;0.20;;;;;;;;;;4971517;28;20542;-80
2023/04/10 10:22:23;;;;;;;0.45;0.45;;;;;;;;;;4964240;28;20367;-81
2023/04/10 10:24:55;;;;;;;0.45;0.40;;;;;;;;;;4973505;28;20530;-80
2023/04/10 10:27:22;;;;;;;4.95;0.50;;;;;;;;;;4974713;28;20561;-83
2023/04/10 10:29:49;;;;;;;0.20;0.10;;;;;;;;;;4969637;28;20084;-83
2023/04/10 10:32:17;;;;;;;0.98;0.85;;;;;;;;;;4966592;28;20104;-83
2023/04/10 10:34:44;;;;;;;0.75;0.75;;;;;;;;;;4971732;28;20038;-82
2023/04/10 10:37:11;;;;;;;0.38;0.38;;;;;;;;;;4968159;28;20046;-80
2023/04/10 10:39:37;;;;;;;0.32;0.32;;;;;;;;;;4945603;28;20103;-80
2023/04/10 10:42:18;;;;;;;0.70;0.38;;;;;;;;;;4958296;28;20478;-83
2023/04/10 10:44:47;;;;;;;0.22;0.22;;;;;;;;;;4945534;28;20127;-80
2023/04/10 10:47:22;;;;;;;0.22;0.22;;;;;;;;;;4957285;28;21586;-83
2023/04/10 10:49:55;;;;;;;0.40;0.35;;;;;;;;;;4975305;28;20038;-80
2023/04/10 10:52:39;;;;;;;0.88;0.40;;;;;;;;;;4966849;28;20070;-83
2023/04/10 10:55:24;;;;;;;0.50;0.30;;;;;;;;;;4974677;28;20038;-80
2023/04/10 10:57:53;;;;;;;0.25;0.25;;;;;;;;;;4969123;28;20047;-80
2023/04/10 11:00:20;;;;;;;0.63;0.30;;;;;;;;;;4974048;28;20764;-82
2023/04/10 11:03:06;;;;;;;0.40;0.32;;;;;;;;;;4976140;28;20439;-86
2023/04/10 11:05:51;;;;;;;0.20;0.10;;;;;;;;;;4968342;28;20058;-81
2023/04/10 11:08:17;;;;;;;0.20;0.10;;;;;;;;;;4977974;28;20042;-80
2023/04/10 11:11:02;;;;;;;0.20;0.10;;;;;;;;;;4973756;28;20191;-81
2023/04/10 11:13:29;;;;;;;0.47;0.35;;;;;;;;;;5004446;23;20323;-82
2023/04/10 11:15:59;;;;;;;0.25;0.25;;;;;;;;;;4979965;28;20420;-83
2023/04/10 11:18:47;;;;;;;1.08;0.98;;;;;;;;;;4977758;28;20144;-83
2023/04/10 11:21:14;;;;;;;0.22;0.22;;;;;;;;;;4968096;28;20049;-82
2023/04/10 11:23:49;;;;;;;0.20;0.15;;;;;;;;;;4963696;28;20128;-82
2023/04/10 11:26:34;;;;;;;0.20;0.10;;;;;;;;;;4960223;28;20456;-82
2023/04/10 11:29:00;;;;;;;1.48;0.55;;;;;;;;;;4958561;28;20508;-83
2023/04/10 11:31:27;;;;;;;0.77;0.68;;;;;;;;;;4975055;28;20054;-81
2023/04/10 11:33:53;;;;;;;0.20;0.15;;;;;;;;;;4961695;28;20038;-81
2023/04/10 11:36:19;;;;;;;0.20;0.10;;;;;;;;;;4962525;28;20125;-82
2023/04/10 11:39:13;;;;;;;0.20;0.10;;;;;;;;;;4961394;28;20114;-83
2023/04/10 11:41:40;;;;;;;0.32;0.32;;;;;;;;;;4982004;28;20046;-82
2023/04/10 11:44:11;;;;;;;0.32;0.32;;;;;;;;;;4960856;28;20073;-82
2023/04/10 11:46:37;;;;;;;0.20;0.10;;;;;;;;;;4957214;28;20057;-82
2023/04/10 11:49:05;;;;;;;0.40;0.40;;;;;;;;;;4962783;28;20061;-82
2023/04/10 11:51:31;;;;;;;0.85;0.47;;;;;;;;;;4957754;28;20046;-82
2023/04/10 11:54:05;;;;;;;0.45;0.45;;;;;;;;;;4953087;28;20050;-83
2023/04/10 11:56:31;;;;;;;1.42;0.55;;;;;;;;;;4952273;28;20038;-83
2023/04/10 11:58:57;;;;;;;0.25;0.10;;;;;;;;;;4970286;28;20125;-83
2023/04/10 12:01:23;;;;;;;0.20;0.10;;;;;;;;;;4950568;28;20138;-82
2023/04/10 12:03:49;;;;;;;0.22;0.20;;;;;;;;;;4962283;28;20042;-83
2023/04/10 12:06:15;;;;;;;0.65;0.65;;;;;;;;;;4971694;28;20358;-82
2023/04/10 12:08:49;;;;;;;2.95;0.57;;;;;;;;;;4952393;28;20555;-81
2023/04/10 12:11:23;;;;;;;0.25;0.20;;;;;;;;;;4955393;28;20528;-81
2023/04/10 12:13:53;;;;;;;0.20;0.10;;;;;;;;;;4907547;28;1108336;-82
2023/04/10 12:16:20;;;;;;;0.43;0.43;;;;;;;;;;4966719;28;20042;-82
2023/04/10 12:18:46;;;;;;;0.30;0.13;;;;;;;;;;4966092;28;20045;-83
2023/04/10 12:21:12;;;;;;;0.20;0.10;;;;;;;;;;4965170;28;20097;-83
2023/04/10 12:23:39;;;;;;;0.73;0.65;;;;;;;;;;4966431;28;20038;-82
2023/04/10 12:26:08;;;;;;;0.20;0.15;;;;;;;;;;4959763;28;20586;-82
2023/04/10 12:28:35;;;;;;;0.20;0.10;;;;;;;;;;4981031;28;20078;-82
2023/04/10 12:31:02;;;;;;;0.40;0.40;;;;;;;;;;4974972;28;22618;-82
2023/04/10 12:33:28;;;;;;;0.20;0.10;;;;;;;;;;4961301;28;20038;-82
2023/04/10 12:35:54;;;;;;;0.20;0.10;;;;;;;;;;4975774;28;20065;-82
2023/04/10 12:38:39;;;;;;;0.25;0.25;;;;;;;;;;4976075;28;20043;-82
2023/04/10 12:41:06;;;;;;;0.30;0.30;;;;;;;;;;4976861;28;20038;-81
2023/04/10 12:43:37;;;;;;;0.20;0.10;;;;;;;;;;4977390;28;20530;-81
2023/04/10 12:46:03;;;;;;;0.20;0.20;;;;;;;;;;4961194;28;20057;-84
2023/04/10 12:48:30;;;;;;;0.20;0.20;;;;;;;;;;4964637;28;20034;-82
2023/04/10 12:50:56;;;;;;;0.20;0.10;;;;;;;;;;4961573;28;20062;-82
2023/04/10 12:53:22;;;;;;;0.25;0.25;;;;;;;;;;4981704;28;20669;-82
2023/04/10 12:55:58;;;;;;;0.20;0.10;;;;;;;;;;4964796;28;20100;-82
2023/04/10 12:58:27;;;;;;;0.25;0.25;;;;;;;;;;4961129;28;20046;-82
2023/04/10 13:00:54;;;;;;;0.50;0.30;;;;;;;;;;4958478;28;20169;-82
2023/04/10 13:03:21;;;;;;;0.38;0.38;;;;;;;;;;4964727;28;20038;-82
2023/04/10 13:05:47;;;;;;;0.85;0.47;;;;;;;;;;4960322;28;20248;-81
2023/04/10 13:08:13;;;;;;;0.20;0.20;;;;;;;;;;4963904;28;20608;-83
2023/04/10 13:10:41;;;;;;;0.30;0.20;;;;;;;;;;4969969;28;20065;-81
2023/04/10 13:13:07;;;;;;;0.82;0.38;;;;;;;;;;4967252;28;20324;-82
2023/04/10 13:15:33;;;;;;;0.20;0.10;;;;;;;;;;4980052;28;20239;-81
2023/04/10 13:17:59;;;;;;;0.20;0.15;;;;;;;;;;4965818;28;20130;-82
2023/04/10 13:20:25;;;;;;;0.20;0.10;;;;;;;;;;4971684;28;20038;-82
2023/04/10 13:22:51;;;;;;;0.20;0.20;;;;;;;;;;4959269;28;20042;-82
2023/04/10 13:25:17;;;;;;;0.20;0.10;;;;;;;;;;4969427;28;20413;-84
2023/04/10 13:27:44;;;;;;;0.20;0.10;;;;;;;;;;4966465;28;20113;-82
2023/04/10 13:30:10;;;;;;;0.32;0.10;;;;;;;;;;4981961;28;20434;-82
2023/04/10 13:32:36;;;;;;;0.20;0.13;;;;;;;;;;4964171;28;20126;-81
2023/04/10 13:35:02;;;;;;;0.20;0.15;;;;;;;;;;4981276;28;20042;-82
2023/04/10 13:37:28;;;;;;;0.20;0.10;;;;;;;;;;4966267;28;20520;-82
2023/04/10 13:39:55;;;;;;;0.45;0.45;;;;;;;;;;4967392;28;20049;-81
2023/04/10 13:42:21;;;;;;;0.32;0.20;;;;;;;;;;4952901;28;20050;-83
2023/04/10 13:44:47;;;;;;;0.20;0.10;;;;;;;;;;4957988;28;20049;-83
2023/04/10 13:47:13;;;;;;;0.20;0.10;;;;;;;;;;4970667;28;20046;-82
2023/04/10 13:49:39;;;;;;;0.20;0.10;;;;;;;;;;4953524;28;20046;-81
2023/04/10 13:52:05;;;;;;;0.20;0.10;;;;;;;;;;4968902;28;20046;-82
2023/04/10 13:54:31;;;;;;;0.30;0.10;;;;;;;;;;4990774;28;20485;-81
2023/04/10 13:56:58;;;;;;;0.30;0.20;;;;;;;;;;4963588;28;20038;-82
2023/04/10 13:59:24;;;;;;;0.20;0.10;;;;;;;;;;4958772;28;20353;-81
2023/04/10 14:01:51;;;;;;;0.20;0.10;;;;;;;;;;4962989;28;20050;-82
2023/04/10 14:04:17;;;;;;;0.28;0.17;;;;;;;;;;4965543;28;20089;-82
2023/04/10 14:06:43;;;;;;;0.20;0.10;;;;;;;;;;4965249;28;20050;-83
2023/04/10 14:09:09;;;;;;;1.42;1.13;;;;;;;;;;4974991;28;20042;-82
2023/04/10 14:11:35;;;;;;;0.32;0.20;;;;;;;;;;4957750;28;20074;-82
2023/04/10 14:14:01;;;;;;;0.25;0.20;;;;;;;;;;4957665;28;20085;-81
2023/04/10 14:16:27;;;;;;;0.22;0.22;;;;;;;;;;4974795;28;20046;-81
2023/04/10 14:18:53;;;;;;;0.20;0.10;;;;;;;;;;4966027;28;20419;-81
2023/04/10 14:21:19;;;;;;;0.20;0.10;;;;;;;;;;4979812;28;20046;-83
2023/04/10 14:23:46;;;;;;;0.20;0.10;;;;;;;;;;4973616;28;20526;-83
2023/04/10 14:26:12;;;;;;;0.20;0.10;;;;;;;;;;4967771;28;20074;-84
2023/04/10 14:28:38;;;;;;;0.20;0.10;;;;;;;;;;4960917;28;20070;-82
2023/04/10 14:31:05;;;;;;;0.20;0.08;;;;;;;;;;4953434;28;20039;-82
2023/04/10 14:33:31;;;;;;;0.25;0.20;;;;;;;;;;4953510;28;20037;-82
2023/04/10 14:35:57;;;;;;;0.20;0.10;;;;;;;;;;4950510;28;20078;-81
2023/04/10 14:38:23;;;;;;;0.40;0.30;;;;;;;;;;4957814;28;20453;-82
2023/04/10 14:40:49;;;;;;;0.20;0.10;;;;;;;;;;4959455;28;20051;-83
2023/04/10 14:43:16;;;;;;;0.20;0.10;;;;;;;;;;4954939;28;20038;-82
2023/04/10 14:45:42;;;;;;;0.20;0.10;;;;;;;;;;4956568;28;20042;-83